createdAt,value
2018-04-26T00:00:48.052Z,10
2018-04-26T00:01:47.405Z,10
2018-04-26T00:02:48.022Z,10.08
2018-04-26T00:03:47.405Z,10.05
2018-04-26T00:04:48.116Z,10.07
2018-04-26T00:05:47.894Z,10
2018-04-26T00:06:48.128Z,10.08
2018-04-26T00:07:47.920Z,10.05
2018-04-26T00:08:47.842Z,10.03
2018-04-26T00:09:47.695Z,10.02
2018-04-26T00:10:47.984Z,9.93
2018-04-26T00:11:47.707Z,9.95
2018-04-26T00:12:47.687Z,9.96
2018-04-26T00:13:47.829Z,9.96
2018-04-26T00:14:47.847Z,9.93
2018-04-26T00:15:47.818Z,9.9
2018-04-26T00:16:47.531Z,9.92
2018-04-26T00:17:47.334Z,9.84
2018-04-26T00:18:47.326Z,9.95
2018-04-26T00:19:47.568Z,9.72
2018-04-26T00:20:47.565Z,9.8
2018-04-26T00:21:47.562Z,9.78
2018-04-26T00:22:47.547Z,9.72
2018-04-26T00:23:47.273Z,9.72
2018-04-26T00:24:47.265Z,9.72
2018-04-26T00:25:47.254Z,9.71
2018-04-26T00:26:47.506Z,9.63
2018-04-26T00:27:47.502Z,9.72
2018-04-26T00:28:47.485Z,9.7
2018-04-26T00:29:47.481Z,9.67
2018-04-26T00:30:47.473Z,9.74
2018-04-26T00:31:47.467Z,9.67
2018-04-26T00:32:47.447Z,9.6
2018-04-26T00:33:47.176Z,9.7
2018-04-26T00:34:47.423Z,9.67
2018-04-26T00:35:47.411Z,9.64
2018-04-26T00:36:47.405Z,9.67
2018-04-26T00:37:47.403Z,9.57
2018-04-26T00:38:47.454Z,9.59
2018-04-26T00:39:47.385Z,9.59
2018-04-26T00:40:47.104Z,9.45
2018-04-26T00:41:47.099Z,9.48
2018-04-26T00:42:47.085Z,9.56
2018-04-26T00:43:47.080Z,9.47
2018-04-26T00:44:47.066Z,9.48
2018-04-26T00:45:47.055Z,9.44
2018-04-26T00:46:47.310Z,9.44
2018-04-26T00:47:47.037Z,9.37
2018-04-26T00:48:47.287Z,9.27
2018-04-26T00:49:47.273Z,9.38
2018-04-26T00:50:47.008Z,9.35
2018-04-26T00:51:47.253Z,9.29
2018-04-26T00:52:46.985Z,9.3
2018-04-26T00:53:47.233Z,9.3
2018-04-26T00:54:47.225Z,9.3
2018-04-26T00:55:47.216Z,9.35
2018-04-26T00:56:47.203Z,9.26
2018-04-26T00:57:46.939Z,9.27
2018-04-26T00:58:46.928Z,9.24
2018-04-26T00:59:46.914Z,9.21
2018-04-26T01:00:46.908Z,9.17
2018-04-26T01:01:47.223Z,9.17
2018-04-26T01:02:46.895Z,9.11
2018-04-26T01:03:47.156Z,9.05
2018-04-26T01:04:46.876Z,9.05
2018-04-26T01:05:46.861Z,9.04
2018-04-26T01:06:46.848Z,8.94
2018-04-26T01:07:47.125Z,9.14
2018-04-26T01:08:46.830Z,9
2018-04-26T01:09:47.081Z,8.98
2018-04-26T01:10:47.085Z,8.87
2018-04-26T01:11:47.064Z,8.95
2018-04-26T01:12:47.053Z,9.01
2018-04-26T01:13:46.528Z,9.01
2018-04-26T01:14:46.767Z,9.01
2018-04-26T01:15:47.015Z,8.97
2018-04-26T01:16:46.748Z,8.94
2018-04-26T01:17:46.738Z,8.95
2018-04-26T01:18:46.987Z,8.83
2018-04-26T01:19:46.719Z,8.82
2018-04-26T01:20:46.705Z,8.8
2018-04-26T01:21:46.707Z,8.76
2018-04-26T01:22:46.683Z,8.74
2018-04-26T01:23:46.942Z,8.69
2018-04-26T01:24:46.901Z,8.68
2018-04-26T01:25:46.911Z,8.71
2018-04-26T01:26:46.901Z,8.69
2018-04-26T01:27:46.901Z,8.74
2018-04-26T01:28:46.898Z,8.61
2018-04-26T01:29:46.616Z,8.69
2018-04-26T01:30:46.859Z,8.77
2018-04-26T01:31:46.847Z,8.76
2018-04-26T01:32:46.841Z,8.67
2018-04-26T01:33:46.313Z,8.65
2018-04-26T01:34:46.561Z,8.61
2018-04-26T01:35:46.821Z,8.62
2018-04-26T01:36:46.795Z,8.67
2018-04-26T01:37:46.270Z,8.69
2018-04-26T01:38:46.799Z,8.67
2018-04-26T01:39:46.512Z,8.69
2018-04-26T01:40:46.495Z,8.64
2018-04-26T01:41:46.747Z,8.69
2018-04-26T01:42:46.472Z,8.61
2018-04-26T01:43:46.467Z,8.61
2018-04-26T01:44:46.457Z,8.61
2018-04-26T01:45:46.443Z,8.64
2018-04-26T01:46:46.694Z,8.47
2018-04-26T01:47:46.677Z,8.6
2018-04-26T01:48:46.410Z,8.57
2018-04-26T01:49:46.399Z,8.58
2018-04-26T01:50:46.646Z,8.57
2018-04-26T01:51:46.381Z,8.53
2018-04-26T01:52:46.373Z,8.47
2018-04-26T01:53:46.612Z,8.39
2018-04-26T01:54:46.089Z,8.46
2018-04-26T01:55:46.593Z,8.47
2018-04-26T01:56:46.324Z,8.5
2018-04-26T01:57:46.317Z,8.52
2018-04-26T01:58:46.311Z,8.57
2018-04-26T01:59:46.302Z,8.61
2018-04-26T02:00:46.025Z,8.62
2018-04-26T02:01:46.270Z,8.64
2018-04-26T02:02:46.520Z,8.65
2018-04-26T02:03:46.710Z,8.65
2018-04-26T02:04:46.496Z,8.74
2018-04-26T02:05:46.489Z,8.67
2018-04-26T02:06:46.219Z,8.76
2018-04-26T02:07:46.207Z,8.72
2018-04-26T02:08:46.197Z,8.8
2018-04-26T02:09:46.203Z,8.77
2018-04-26T02:10:46.173Z,8.8
2018-04-26T02:11:45.906Z,8.83
2018-04-26T02:12:45.901Z,8.83
2018-04-26T02:13:46.142Z,8.77
2018-04-26T02:14:46.391Z,8.87
2018-04-26T02:15:46.394Z,8.82
2018-04-26T02:16:46.587Z,8.85
2018-04-26T02:17:46.099Z,8.79
2018-04-26T02:18:46.108Z,8.83
2018-04-26T02:19:46.338Z,8.76
2018-04-26T02:20:46.069Z,8.74
2018-04-26T02:21:46.063Z,8.72
2018-04-26T02:22:46.046Z,8.74
2018-04-26T02:23:46.308Z,8.67
2018-04-26T02:24:46.032Z,8.69
2018-04-26T02:25:46.280Z,8.69
2018-04-26T02:26:46.008Z,8.64
2018-04-26T02:27:46.248Z,8.64
2018-04-26T02:28:45.989Z,8.61
2018-04-26T02:29:46.244Z,8.52
2018-04-26T02:30:45.983Z,8.6
2018-04-26T02:31:45.952Z,8.64
2018-04-26T02:32:46.198Z,8.64
2018-04-26T02:33:46.204Z,8.64
2018-04-26T02:34:46.187Z,8.68
2018-04-26T02:35:46.244Z,8.69
2018-04-26T02:36:45.899Z,8.72
2018-04-26T02:37:45.887Z,8.77
2018-04-26T02:38:46.131Z,8.77
2018-04-26T02:39:46.125Z,8.74
2018-04-26T02:40:46.074Z,8.82
2018-04-26T02:41:45.844Z,8.77
2018-04-26T02:42:46.109Z,8.8
2018-04-26T02:43:45.821Z,8.85
2018-04-26T02:44:46.071Z,8.8
2018-04-26T02:45:46.062Z,8.71
2018-04-26T02:46:45.798Z,8.68
2018-04-26T02:47:46.043Z,8.68
2018-04-26T02:48:45.768Z,8.64
2018-04-26T02:49:46.076Z,8.61
2018-04-26T02:50:46.010Z,8.57
2018-04-26T02:51:45.993Z,8.58
2018-04-26T02:52:45.468Z,8.47
2018-04-26T02:53:45.713Z,8.43
2018-04-26T02:54:45.974Z,8.43
2018-04-26T02:55:45.699Z,8.39
2018-04-26T02:56:45.681Z,8.31
2018-04-26T02:57:45.949Z,8.28
2018-04-26T02:58:45.925Z,8.36
2018-04-26T02:59:45.904Z,8.36
2018-04-26T03:00:45.648Z,8.35
2018-04-26T03:01:45.887Z,8.32
2018-04-26T03:02:45.622Z,8.39
2018-04-26T03:03:45.890Z,8.29
2018-04-26T03:04:45.337Z,8.26
2018-04-26T03:05:45.581Z,8.24
2018-04-26T03:06:45.838Z,8.34
2018-04-26T03:07:45.313Z,8.25
2018-04-26T03:08:45.555Z,8.25
2018-04-26T03:09:45.285Z,8.28
2018-04-26T03:10:45.528Z,8.28
2018-04-26T03:11:45.535Z,8.22
2018-04-26T03:12:45.764Z,8.31
2018-04-26T03:13:45.507Z,8.35
2018-04-26T03:14:45.487Z,8.32
2018-04-26T03:15:45.481Z,8.43
2018-04-26T03:16:45.722Z,8.39
2018-04-26T03:17:45.714Z,8.42
2018-04-26T03:18:45.182Z,8.58
2018-04-26T03:19:45.696Z,8.57
2018-04-26T03:20:45.683Z,8.52
2018-04-26T03:21:45.413Z,8.68
2018-04-26T03:22:45.656Z,8.69
2018-04-26T03:23:45.644Z,8.67
2018-04-26T03:24:45.372Z,8.58
2018-04-26T03:25:45.363Z,8.62
2018-04-26T03:26:45.613Z,8.65
2018-04-26T03:27:45.344Z,8.64
2018-04-26T03:28:45.330Z,8.6
2018-04-26T03:29:45.803Z,8.62
2018-04-26T03:30:45.570Z,8.62
2018-04-26T03:31:45.300Z,8.61
2018-04-26T03:32:45.287Z,8.67
2018-04-26T03:33:45.278Z,8.67
2018-04-26T03:34:45.537Z,8.67
2018-04-26T03:35:45.257Z,8.65
2018-04-26T03:36:45.245Z,8.72
2018-04-26T03:37:45.494Z,8.74
2018-04-26T03:38:45.501Z,8.69
2018-04-26T03:39:45.468Z,8.69
2018-04-26T03:40:45.209Z,8.8
2018-04-26T03:41:45.200Z,8.77
2018-04-26T03:42:45.440Z,8.86
2018-04-26T03:43:44.908Z,8.86
2018-04-26T03:44:45.156Z,8.87
2018-04-26T03:45:45.403Z,9.01
2018-04-26T03:46:45.390Z,8.95
2018-04-26T03:47:45.126Z,8.97
2018-04-26T03:48:45.372Z,8.97
2018-04-26T03:49:44.847Z,8.97
2018-04-26T03:50:45.362Z,8.94
2018-04-26T03:51:45.339Z,9
2018-04-26T03:52:45.330Z,8.86
2018-04-26T03:53:45.316Z,8.85
2018-04-26T03:54:45.055Z,8.79
2018-04-26T03:55:45.299Z,8.76
2018-04-26T03:56:45.284Z,8.58
2018-04-26T03:57:45.269Z,8.67
2018-04-26T03:58:45.082Z,8.64
2018-04-26T03:59:45.256Z,8.6
2018-04-26T04:00:44.730Z,8.52
2018-04-26T04:01:44.713Z,8.44
2018-04-26T04:02:45.222Z,8.32
2018-04-26T04:03:45.216Z,8.39
2018-04-26T04:04:44.939Z,8.35
2018-04-26T04:05:44.933Z,8.25
2018-04-26T04:06:45.178Z,8.26
2018-04-26T04:07:45.166Z,8.32
2018-04-26T04:08:45.169Z,8.21
2018-04-26T04:09:45.142Z,8.32
2018-04-26T04:10:44.873Z,8.24
2018-04-26T04:11:45.122Z,8.16
2018-04-26T04:12:45.113Z,8.21
2018-04-26T04:13:44.947Z,8.22
2018-04-26T04:14:44.835Z,8.19
2018-04-26T04:15:45.073Z,8.11
2018-04-26T04:16:45.081Z,8.22
2018-04-26T04:17:44.815Z,8.22
2018-04-26T04:18:45.062Z,8.25
2018-04-26T04:19:44.774Z,8.21
2018-04-26T04:20:45.021Z,8.16
2018-04-26T04:21:45.106Z,8.04
2018-04-26T04:22:44.742Z,8.14
2018-04-26T04:23:44.992Z,8.24
2018-04-26T04:24:44.975Z,8.17
2018-04-26T04:25:44.449Z,8.29
2018-04-26T04:26:44.697Z,8.25
2018-04-26T04:27:44.684Z,8.29
2018-04-26T04:28:44.931Z,8.34
2018-04-26T04:29:44.919Z,8.4
2018-04-26T04:30:44.910Z,8.46
2018-04-26T04:31:44.900Z,8.52
2018-04-26T04:32:45.111Z,8.6
2018-04-26T04:33:44.618Z,8.65
2018-04-26T04:34:44.606Z,8.64
2018-04-26T04:35:44.856Z,8.65
2018-04-26T04:36:44.587Z,8.68
2018-04-26T04:37:44.572Z,8.74
2018-04-26T04:38:44.835Z,8.74
2018-04-26T04:39:44.840Z,8.76
2018-04-26T04:40:44.540Z,8.74
2018-04-26T04:41:44.532Z,8.82
2018-04-26T04:42:44.519Z,8.77
2018-04-26T04:43:44.765Z,8.76
2018-04-26T04:44:44.755Z,8.74
2018-04-26T04:45:44.489Z,8.9
2018-04-26T04:46:44.735Z,8.85
2018-04-26T04:47:44.722Z,8.86
2018-04-26T04:48:44.453Z,8.87
2018-04-26T04:49:44.441Z,8.82
2018-04-26T04:50:44.891Z,8.89
2018-04-26T04:51:44.692Z,8.94
2018-04-26T04:52:44.667Z,8.94
2018-04-26T04:53:44.657Z,8.92
2018-04-26T04:54:44.644Z,8.87
2018-04-26T04:55:44.377Z,8.98
2018-04-26T04:56:44.363Z,9
2018-04-26T04:57:44.096Z,9.12
2018-04-26T04:58:44.605Z,9.08
2018-04-26T04:59:44.592Z,9.01
2018-04-26T05:00:44.605Z,9.12
2018-04-26T05:01:44.573Z,9.19
2018-04-26T05:02:44.557Z,9.16
2018-04-26T05:03:44.617Z,9.27
2018-04-26T05:04:44.533Z,9.32
2018-04-26T05:05:44.540Z,9.34
2018-04-26T05:06:44.523Z,9.27
2018-04-26T05:07:43.991Z,9.24
2018-04-26T05:08:43.981Z,9.23
2018-04-26T05:09:44.232Z,9.14
2018-04-26T05:10:44.218Z,9.21
2018-04-26T05:11:44.214Z,9.29
2018-04-26T05:12:44.451Z,9.3
2018-04-26T05:13:44.515Z,9.45
2018-04-26T05:14:44.189Z,9.55
2018-04-26T05:15:44.423Z,9.52
2018-04-26T05:16:44.157Z,9.53
2018-04-26T05:17:44.398Z,9.56
2018-04-26T05:18:44.134Z,9.62
2018-04-26T05:19:44.583Z,9.57
2018-04-26T05:20:44.390Z,9.71
2018-04-26T05:21:44.358Z,9.75
2018-04-26T05:22:44.351Z,9.85
2018-04-26T05:23:44.081Z,9.95
2018-04-26T05:24:44.295Z,10.07
2018-04-26T05:25:44.478Z,10.07
2018-04-26T05:26:44.308Z,10.2
2018-04-26T05:27:44.301Z,10.32
2018-04-26T05:28:44.509Z,10.41
2018-04-26T05:29:44.021Z,10.38
2018-04-26T05:30:44.270Z,10.42
2018-04-26T05:31:44.021Z,10.44
2018-04-26T05:32:43.991Z,10.49
2018-04-26T05:33:44.197Z,10.59
2018-04-26T05:34:44.232Z,10.55
2018-04-26T05:35:43.967Z,10.57
2018-04-26T05:36:44.218Z,10.51
2018-04-26T05:37:43.941Z,10.47
2018-04-26T05:38:44.190Z,10.32
2018-04-26T05:39:44.180Z,10.26
2018-04-26T05:40:44.389Z,10.25
2018-04-26T05:41:43.647Z,10.18
2018-04-26T05:42:44.152Z,10.2
2018-04-26T05:43:44.142Z,10.21
2018-04-26T05:44:44.131Z,10.29
2018-04-26T05:45:43.868Z,10.26
2018-04-26T05:46:43.855Z,10.29
2018-04-26T05:47:44.128Z,10.32
2018-04-26T05:48:44.113Z,10.38
2018-04-26T05:49:44.090Z,10.28
2018-04-26T05:50:44.082Z,10.26
2018-04-26T05:51:43.808Z,10.15
2018-04-26T05:52:44.054Z,10.13
2018-04-26T05:53:43.793Z,10
2018-04-26T05:54:44.036Z,10.05
2018-04-26T05:55:44.183Z,10.05
2018-04-26T05:56:44.020Z,10.02
2018-04-26T05:57:44.008Z,10.02
2018-04-26T05:58:43.755Z,10.07
2018-04-26T05:59:43.732Z,10.17
2018-04-26T06:00:43.720Z,10.15
2018-04-26T06:01:43.464Z,10.23
2018-04-26T06:02:43.964Z,10.28
2018-04-26T06:03:44.129Z,10.14
2018-04-26T06:04:43.969Z,10.17
2018-04-26T06:05:43.935Z,10.29
2018-04-26T06:06:43.661Z,10.32
2018-04-26T06:07:43.915Z,10.15
2018-04-26T06:08:43.903Z,10.21
2018-04-26T06:09:43.911Z,10.26
2018-04-26T06:10:43.885Z,10.29
2018-04-26T06:11:43.358Z,10.18
2018-04-26T06:12:43.611Z,10.31
2018-04-26T06:13:43.595Z,10.25
2018-04-26T06:14:43.588Z,10.21
2018-04-26T06:15:43.778Z,10.26
2018-04-26T06:16:43.824Z,10.17
2018-04-26T06:17:43.561Z,10.15
2018-04-26T06:18:43.823Z,10.14
2018-04-26T06:19:43.812Z,10.18
2018-04-26T06:21:15.633Z,10.08
2018-04-26T06:21:43.520Z,10.03
2018-04-26T06:22:43.511Z,10.1
2018-04-26T06:23:43.515Z,10.08
2018-04-26T06:24:43.749Z,10.17
2018-04-26T06:25:43.482Z,10.21
2018-04-26T06:26:43.736Z,10.42
2018-04-26T06:27:43.486Z,10.55
2018-04-26T06:28:43.790Z,10.67
2018-04-26T06:29:43.699Z,10.75
2018-04-26T06:30:43.434Z,10.67
2018-04-26T06:31:43.426Z,10.69
2018-04-26T06:32:43.416Z,10.73
2018-04-26T06:33:43.670Z,10.9
2018-04-26T06:34:43.414Z,10.75
2018-04-26T06:35:43.396Z,10.77
2018-04-26T06:36:43.123Z,10.88
2018-04-26T06:37:43.631Z,10.97
2018-04-26T06:38:43.359Z,10.9
2018-04-26T06:39:43.348Z,11.03
2018-04-26T06:40:43.606Z,11.1
2018-04-26T06:41:43.607Z,11.26
2018-04-26T06:42:43.579Z,11.35
2018-04-26T06:43:43.318Z,11.26
2018-04-26T06:44:43.332Z,11.16
2018-04-26T06:45:43.556Z,11
2018-04-26T06:46:43.559Z,11.12
2018-04-26T06:47:43.578Z,11.46
2018-04-26T06:48:43.271Z,11.76
2018-04-26T06:49:43.482Z,12.43
2018-04-26T06:50:43.535Z,13.01
2018-04-26T06:51:43.508Z,13.44
2018-04-26T06:52:43.233Z,13.45
2018-04-26T06:53:42.966Z,13.65
2018-04-26T06:54:43.221Z,13.84
2018-04-26T06:55:43.483Z,13.91
2018-04-26T06:56:43.463Z,14.36
2018-04-26T06:57:43.197Z,15.23
2018-04-26T06:58:43.189Z,15.63
2018-04-26T06:59:43.446Z,16.04
2018-04-26T07:00:43.448Z,16.54
2018-04-26T07:01:43.174Z,17
2018-04-26T07:02:43.422Z,16.99
2018-04-26T07:03:43.414Z,17.12
2018-04-26T07:04:43.404Z,17.13
2018-04-26T07:05:43.526Z,17.13
2018-04-26T07:06:43.416Z,17.1
2018-04-26T07:07:42.879Z,17.03
2018-04-26T07:08:43.387Z,16.94
2018-04-26T07:09:43.383Z,16.36
2018-04-26T07:10:43.375Z,15.89
2018-04-26T07:11:43.511Z,15.63
2018-04-26T07:12:43.107Z,15.73
2018-04-26T07:13:43.384Z,16.34
2018-04-26T07:14:43.355Z,16.85
2018-04-26T07:15:43.091Z,17.05
2018-04-26T07:16:43.088Z,17.3
2018-04-26T07:17:42.823Z,16.85
2018-04-26T07:18:43.075Z,16.49
2018-04-26T07:19:43.070Z,16.39
2018-04-26T07:20:43.073Z,16.63
2018-04-26T07:21:43.070Z,17.3
2018-04-26T07:22:43.060Z,17.4
2018-04-26T07:23:43.310Z,17.58
2018-04-26T07:24:43.324Z,17.98
2018-04-26T07:25:43.323Z,18.16
2018-04-26T07:26:43.298Z,17.77
2018-04-26T07:27:43.038Z,17.73
2018-04-26T07:28:42.776Z,17.96
2018-04-26T07:29:43.289Z,18.03
2018-04-26T07:30:43.296Z,17.84
2018-04-26T07:31:43.280Z,18.19
2018-04-26T07:32:43.277Z,18.69
2018-04-26T07:33:42.751Z,18.89
2018-04-26T07:34:43.013Z,18.74
2018-04-26T07:35:43.021Z,18.61
2018-04-26T07:36:43.276Z,18.76
2018-04-26T07:37:42.998Z,18.41
2018-04-26T07:38:42.730Z,17.54
2018-04-26T07:39:42.988Z,16.73
2018-04-26T07:40:42.728Z,15.6
2018-04-26T07:41:43.233Z,14.67
2018-04-26T07:42:42.974Z,14.08
2018-04-26T07:43:43.224Z,13.68
2018-04-26T07:44:43.079Z,13.35
2018-04-26T07:45:43.220Z,13.03
2018-04-26T07:46:42.954Z,12.55
2018-04-26T07:47:43.205Z,12.29
2018-04-26T07:48:42.679Z,12.2
2018-04-26T07:49:42.935Z,12.1
2018-04-26T07:50:43.180Z,11.89
2018-04-26T07:51:42.914Z,11.78
2018-04-26T07:52:42.913Z,11.76
2018-04-26T07:53:43.162Z,11.81
2018-04-26T07:54:43.157Z,11.81
2018-04-26T07:55:42.893Z,11.73
2018-04-26T07:56:42.881Z,11.68
2018-04-26T07:57:43.147Z,11.63
2018-04-26T07:58:43.129Z,11.66
2018-04-26T07:59:42.605Z,11.75
2018-04-26T08:00:43.109Z,11.64
2018-04-26T08:01:43.141Z,11.63
2018-04-26T08:02:43.091Z,11.51
2018-04-26T08:03:42.829Z,11.52
2018-04-26T08:04:43.077Z,11.38
2018-04-26T08:05:43.073Z,11.34
2018-04-26T08:06:43.065Z,11.27
2018-04-26T08:07:42.797Z,11.21
2018-04-26T08:08:42.789Z,11.24
2018-04-26T08:09:43.047Z,11.42
2018-04-26T08:10:43.049Z,11.51
2018-04-26T08:11:43.291Z,11.34
2018-04-26T08:12:42.778Z,11.35
2018-04-26T08:13:42.753Z,11.34
2018-04-26T08:14:42.746Z,11.26
2018-04-26T08:15:42.997Z,11.24
2018-04-26T08:16:43.007Z,11.13
2018-04-26T08:17:42.978Z,11.09
2018-04-26T08:18:42.970Z,11.15
2018-04-26T08:19:42.889Z,10.97
2018-04-26T08:20:42.437Z,10.91
2018-04-26T08:21:42.688Z,10.95
2018-04-26T08:22:42.939Z,10.87
2018-04-26T08:23:42.926Z,11
2018-04-26T08:24:42.992Z,11.02
2018-04-26T08:25:42.395Z,11.1
2018-04-26T08:26:42.651Z,10.98
2018-04-26T08:27:42.636Z,10.97
2018-04-26T08:28:42.627Z,10.85
2018-04-26T08:29:42.622Z,10.85
2018-04-26T08:30:42.882Z,10.75
2018-04-26T08:31:42.603Z,10.75
2018-04-26T08:32:42.855Z,10.67
2018-04-26T08:33:42.866Z,10.7
2018-04-26T08:34:42.835Z,10.51
2018-04-26T08:35:42.567Z,10.49
2018-04-26T08:36:42.561Z,10.38
2018-04-26T08:37:42.552Z,10.29
2018-04-26T08:38:42.804Z,10.26
2018-04-26T08:39:42.275Z,10.03
2018-04-26T08:40:42.524Z,10.13
2018-04-26T08:41:42.518Z,10.07
2018-04-26T08:42:42.767Z,9.99
2018-04-26T08:43:42.756Z,10.03
2018-04-26T08:44:42.754Z,10.02
2018-04-26T08:45:42.600Z,10.11
2018-04-26T08:46:42.805Z,10.1
2018-04-26T08:47:42.722Z,9.99
2018-04-26T08:48:42.710Z,10.07
2018-04-26T08:49:42.701Z,10.15
2018-04-26T08:50:42.687Z,10.23
2018-04-26T08:51:42.682Z,10.32
2018-04-26T08:52:42.154Z,10.36
2018-04-26T08:53:42.678Z,10.39
2018-04-26T08:54:42.396Z,10.42
2018-04-26T08:55:42.385Z,10.38
2018-04-26T08:56:42.649Z,10.39
2018-04-26T08:57:42.628Z,10.33
2018-04-26T08:58:42.614Z,10.46
2018-04-26T08:59:42.697Z,10.44
2018-04-26T09:00:42.598Z,10.55
2018-04-26T09:01:42.583Z,10.55
2018-04-26T09:02:42.582Z,10.49
2018-04-26T09:03:42.573Z,10.47
2018-04-26T09:04:42.562Z,10.41
2018-04-26T09:05:42.293Z,10.28
2018-04-26T09:06:42.651Z,10.26
2018-04-26T09:07:42.533Z,10.28
2018-04-26T09:08:42.522Z,10.26
2018-04-26T09:09:42.269Z,10.33
2018-04-26T09:10:42.503Z,10.29
2018-04-26T09:11:42.497Z,10.44
2018-04-26T09:12:42.226Z,10.51
2018-04-26T09:13:42.478Z,10.51
2018-04-26T09:14:42.208Z,10.46
2018-04-26T09:15:42.611Z,10.47
2018-04-26T09:16:42.448Z,10.54
2018-04-26T09:17:42.438Z,10.57
2018-04-26T09:18:42.173Z,10.47
2018-04-26T09:19:42.420Z,10.54
2018-04-26T09:20:42.164Z,10.47
2018-04-26T09:21:42.145Z,10.44
2018-04-26T09:22:42.400Z,10.49
2018-04-26T09:23:42.383Z,10.63
2018-04-26T09:24:42.122Z,10.65
2018-04-26T09:25:42.384Z,10.66
2018-04-26T09:26:42.103Z,10.65
2018-04-26T09:27:42.091Z,10.63
2018-04-26T09:28:42.341Z,10.7
2018-04-26T09:29:42.333Z,10.73
2018-04-26T09:30:42.060Z,10.91
2018-04-26T09:31:42.322Z,10.92
2018-04-26T09:32:42.048Z,11.08
2018-04-26T09:33:42.301Z,11.12
2018-04-26T09:34:42.356Z,11.2
2018-04-26T09:35:42.022Z,11.3
2018-04-26T09:36:42.268Z,11.42
2018-04-26T09:37:42.002Z,11.3
2018-04-26T09:38:42.447Z,11.27
2018-04-26T09:39:41.982Z,11.28
2018-04-26T09:40:42.239Z,11.33
2018-04-26T09:41:41.966Z,11.3
2018-04-26T09:42:41.958Z,11.41
2018-04-26T09:43:41.949Z,11.42
2018-04-26T09:44:41.942Z,11.42
2018-04-26T09:45:42.393Z,11.46
2018-04-26T09:46:41.923Z,11.56
2018-04-26T09:47:41.916Z,11.51
2018-04-26T09:48:42.113Z,11.61
2018-04-26T09:49:42.157Z,11.61
2018-04-26T09:50:41.897Z,11.75
2018-04-26T09:51:41.886Z,11.97
2018-04-26T09:52:42.041Z,12.16
2018-04-26T09:53:42.124Z,12.29
2018-04-26T09:54:42.119Z,12.4
2018-04-26T09:55:42.111Z,12.65
2018-04-26T09:56:41.842Z,12.91
2018-04-26T09:57:42.095Z,13.16
2018-04-26T09:58:42.270Z,13.27
2018-04-26T09:59:42.077Z,13.48
2018-04-26T10:00:42.075Z,13.6
2018-04-26T10:01:42.215Z,13.72
2018-04-26T10:02:42.049Z,13.81
2018-04-26T10:03:41.792Z,13.68
2018-04-26T10:04:41.780Z,13.54
2018-04-26T10:05:42.029Z,13.48
2018-04-26T10:06:41.769Z,13.54
2018-04-26T10:07:42.017Z,13.7
2018-04-26T10:08:41.811Z,14.03
2018-04-26T10:09:41.743Z,14.08
2018-04-26T10:10:41.736Z,14.31
2018-04-26T10:11:41.728Z,14.27
2018-04-26T10:12:41.721Z,14.31
2018-04-26T10:13:41.714Z,14.08
2018-04-26T10:14:41.965Z,13.99
2018-04-26T10:15:41.960Z,13.75
2018-04-26T10:16:41.956Z,13.5
2018-04-26T10:17:41.702Z,13.42
2018-04-26T10:18:41.937Z,13.5
2018-04-26T10:19:41.675Z,13.73
2018-04-26T10:20:41.931Z,13.68
2018-04-26T10:21:41.674Z,13.57
2018-04-26T10:22:41.915Z,13.57
2018-04-26T10:23:41.913Z,13.58
2018-04-26T10:24:41.905Z,13.79
2018-04-26T10:25:41.376Z,13.95
2018-04-26T10:26:41.894Z,14.08
2018-04-26T10:27:41.888Z,14.13
2018-04-26T10:28:41.614Z,13.91
2018-04-26T10:29:41.867Z,13.84
2018-04-26T10:30:41.600Z,13.78
2018-04-26T10:31:41.863Z,13.73
2018-04-26T10:32:41.592Z,13.55
2018-04-26T10:33:41.324Z,13.47
2018-04-26T10:34:41.842Z,13.32
2018-04-26T10:35:41.570Z,13.29
2018-04-26T10:36:41.823Z,13.37
2018-04-26T10:37:41.816Z,13.4
2018-04-26T10:38:41.809Z,13.53
2018-04-26T10:39:41.805Z,13.75
2018-04-26T10:40:41.538Z,14.13
2018-04-26T10:41:41.794Z,14.49
2018-04-26T10:42:41.780Z,14.61
2018-04-26T10:43:41.776Z,14.87
2018-04-26T10:44:41.770Z,15
2018-04-26T10:45:41.247Z,14.85
2018-04-26T10:46:41.759Z,14.86
2018-04-26T10:47:41.753Z,14.98
2018-04-26T10:48:41.487Z,15.16
2018-04-26T10:49:41.742Z,15.34
2018-04-26T10:50:41.731Z,15.4
2018-04-26T10:51:41.727Z,15.41
2018-04-26T10:52:41.464Z,15.43
2018-04-26T10:53:41.199Z,15.38
2018-04-26T10:54:41.710Z,15.2
2018-04-26T10:55:41.702Z,14.82
2018-04-26T10:56:41.697Z,14.56
2018-04-26T10:57:41.697Z,14.44
2018-04-26T10:58:41.704Z,14.19
2018-04-26T10:59:41.427Z,13.91
2018-04-26T11:00:41.678Z,13.79
2018-04-26T11:01:41.752Z,13.58
2018-04-26T11:02:41.671Z,13.63
2018-04-26T11:03:41.834Z,13.51
2018-04-26T11:04:41.396Z,13.45
2018-04-26T11:05:41.131Z,13.21
2018-04-26T11:06:41.646Z,13.13
2018-04-26T11:07:41.839Z,12.88
2018-04-26T11:08:41.375Z,12.73
2018-04-26T11:09:41.621Z,12.52
2018-04-26T11:10:41.613Z,12.31
2018-04-26T11:11:41.847Z,11.97
2018-04-26T11:12:41.085Z,11.68
2018-04-26T11:13:41.594Z,11.56
2018-04-26T11:14:41.329Z,11.38
2018-04-26T11:15:41.788Z,11.24
2018-04-26T11:16:41.581Z,11.13
2018-04-26T11:17:41.568Z,10.79
2018-04-26T11:18:41.304Z,10.49
2018-04-26T11:19:41.294Z,10
2018-04-26T11:20:41.284Z,9.75
2018-04-26T11:21:41.276Z,9.44
2018-04-26T11:22:41.524Z,9.37
2018-04-26T11:23:41.258Z,9.12
2018-04-26T11:24:41.250Z,9.12
2018-04-26T11:25:41.242Z,9.03
2018-04-26T11:26:41.497Z,8.94
2018-04-26T11:27:41.222Z,8.97
2018-04-26T11:28:40.957Z,9.01
2018-04-26T11:29:41.461Z,9.09
2018-04-26T11:30:41.191Z,9.14
2018-04-26T11:31:41.441Z,9.16
2018-04-26T11:32:41.431Z,9.41
2018-04-26T11:33:40.905Z,9.53
2018-04-26T11:34:40.895Z,9.66
2018-04-26T11:35:40.885Z,9.88
2018-04-26T11:36:41.136Z,10
2018-04-26T11:37:41.391Z,10.26
2018-04-26T11:38:41.379Z,10.55
2018-04-26T11:39:41.364Z,10.95
2018-04-26T11:40:41.095Z,11.08
2018-04-26T11:41:41.085Z,11.21
2018-04-26T11:42:41.077Z,11.31
2018-04-26T11:43:41.325Z,11.31
2018-04-26T11:44:41.317Z,11.31
2018-04-26T11:45:41.301Z,11.33
2018-04-26T11:46:41.376Z,11.33
2018-04-26T11:47:41.025Z,11.28
2018-04-26T11:48:41.021Z,11.23
2018-04-26T11:49:41.007Z,11.26
2018-04-26T11:50:40.998Z,11.18
2018-04-26T11:51:41.251Z,11.3
2018-04-26T11:52:40.733Z,11.27
2018-04-26T11:53:40.969Z,11.3
2018-04-26T11:54:40.959Z,11.31
2018-04-26T11:55:41.216Z,11.43
2018-04-26T11:56:41.205Z,11.56
2018-04-26T11:57:41.189Z,11.66
2018-04-26T11:58:41.189Z,11.82
2018-04-26T11:59:41.175Z,12.03
2018-04-26T12:00:41.164Z,12.15
2018-04-26T12:01:41.156Z,12.22
2018-04-26T12:02:40.818Z,12.43
2018-04-26T12:03:41.140Z,12.51
2018-04-26T12:04:40.611Z,12.7
2018-04-26T12:05:40.602Z,12.83
2018-04-26T12:06:41.114Z,12.92
2018-04-26T12:07:41.294Z,13.1
2018-04-26T12:08:41.093Z,13.16
2018-04-26T12:09:40.825Z,13.25
2018-04-26T12:10:40.816Z,13.21
2018-04-26T12:11:40.807Z,13.29
2018-04-26T12:12:41.063Z,13.37
2018-04-26T12:13:40.796Z,13.28
2018-04-26T12:14:40.527Z,13.53
2018-04-26T12:15:41.033Z,13.48
2018-04-26T12:16:41.025Z,13.66
2018-04-26T12:17:40.763Z,13.68
2018-04-26T12:18:40.888Z,13.73
2018-04-26T12:19:40.744Z,13.55
2018-04-26T12:20:40.994Z,13.48
2018-04-26T12:21:40.730Z,13.35
2018-04-26T12:22:40.986Z,13.24
2018-04-26T12:23:40.717Z,13.14
2018-04-26T12:24:40.969Z,13.13
2018-04-26T12:25:40.962Z,13.09
2018-04-26T12:26:40.699Z,13.16
2018-04-26T12:27:40.686Z,13.06
2018-04-26T12:28:40.944Z,12.86
2018-04-26T12:29:40.932Z,12.77
2018-04-26T12:30:40.920Z,12.61
2018-04-26T12:31:40.655Z,12.51
2018-04-26T12:32:40.651Z,12.38
2018-04-26T12:33:40.643Z,12.33
2018-04-26T12:34:40.895Z,12.19
2018-04-26T12:35:40.888Z,12.15
2018-04-26T12:36:40.877Z,12.16
2018-04-26T12:37:40.609Z,12.18
2018-04-26T12:38:40.887Z,12.22
2018-04-26T12:39:40.601Z,12.28
2018-04-26T12:40:40.585Z,12.34
2018-04-26T12:41:40.325Z,12.36
2018-04-26T12:42:40.835Z,12.31
2018-04-26T12:43:40.823Z,12.26
2018-04-26T12:44:40.812Z,12.18
2018-04-26T12:45:40.552Z,12.08
2018-04-26T12:46:40.798Z,11.98
2018-04-26T12:47:40.804Z,11.94
2018-04-26T12:48:40.267Z,11.78
2018-04-26T12:49:40.518Z,11.76
2018-04-26T12:50:40.768Z,11.67
2018-04-26T12:51:40.500Z,11.82
2018-04-26T12:52:40.752Z,11.71
2018-04-26T12:53:40.743Z,11.68
2018-04-26T12:54:40.787Z,11.67
2018-04-26T12:55:40.469Z,11.6
2018-04-26T12:56:40.718Z,11.57
2018-04-26T12:57:40.711Z,11.51
2018-04-26T12:58:40.701Z,11.42
2018-04-26T12:59:40.691Z,11.43
2018-04-26T13:00:40.684Z,11.56
2018-04-26T13:01:40.680Z,11.53
2018-04-26T13:02:40.412Z,11.63
2018-04-26T13:03:40.405Z,11.52
2018-04-26T13:04:40.650Z,11.59
2018-04-26T13:05:40.386Z,11.57
2018-04-26T13:06:40.633Z,11.48